M I D A S
Marine Information and Data Acquisition System
Tripno 1919 of the Zeeleeuw from 2010-07-13 06:19:46 to 2010-07-13 16:03:46
Back to CruiseResearch ActivitiesStationsMapUnderway DataData graphs

EquipmentUnitsComment
TimeDGPSUTC
LatitudeDGPSDM.mWGS84
LongitudeDGPSDM.mWGS84
HeadingGyrodeg 
SOGDGPSknotsSpeed over ground
COGDGPSdegCourse over ground
DepthEcho soundermeters200 kHz
Missing or incorrect values are displayed as -999
Navigation data collected by the RV Zeeleeuw from 2010-07-13 04:44:14 to 2010-07-13 16:18:45
                                                                                    Next 1000 lines
Time Latitude Longitude Heading SOG COG Depth
2010-07-13 04:44:24 51°13.662 2°55.959 124.9 -999 320 -999
2010-07-13 04:44:29 51°13.662 2°55.959 124.9 -999 21 -999
2010-07-13 04:44:34 51°13.662 2°55.959 124.9 -999 169 -999
2010-07-13 04:44:39 51°13.662 2°55.959 124.9 0.1 181 -999
2010-07-13 04:44:44 51°13.662 2°55.959 125 0.1 183 -999
2010-07-13 04:44:49 51°13.662 2°55.959 125 -999 347 -999
2010-07-13 04:44:54 51°13.662 2°55.959 125.1 -999 354 -999
2010-07-13 04:44:59 51°13.662 2°55.959 125.1 -999 348 -999
2010-07-13 04:45:04 51°13.662 2°55.959 125.1 -999 193 -999
2010-07-13 04:45:09 51°13.662 2°55.959 125.1 -999 260 -999
2010-07-13 04:45:14 51°13.662 2°55.959 125.1 0.1 8 -999
2010-07-13 04:45:19 51°13.662 2°55.959 125.1 0.1 357 -999
2010-07-13 04:45:24 51°13.662 2°55.959 125 -999 71 -999
2010-07-13 04:45:29 51°13.662 2°55.959 125 -999 18 -999
2010-07-13 04:45:35 51°13.662 2°55.959 124.9 0.1 4 -999
2010-07-13 04:45:39 51°13.662 2°55.959 124.9 -999 187 -999
2010-07-13 04:45:44 51°13.662 2°55.959 124.9 -999 208 -999
2010-07-13 04:45:49 51°13.661 2°55.959 124.9 0.1 186 -999
2010-07-13 04:45:54 51°13.661 2°55.959 124.9 0.1 185 -999
2010-07-13 04:45:59 51°13.661 2°55.959 125 -999 172 -999
2010-07-13 04:46:04 51°13.661 2°55.959 125.1 -999 183 -999
2010-07-13 04:46:09 51°13.661 2°55.959 125.2 -999 127 -999
2010-07-13 04:46:14 51°13.661 2°55.959 125.3 -999 213 -999
2010-07-13 04:46:19 51°13.661 2°55.959 125.4 0.1 184 -999
2010-07-13 04:46:24 51°13.661 2°55.959 125.5 -999 136 -999
2010-07-13 04:46:29 51°13.661 2°55.959 125.6 0.1 349 -999
2010-07-13 04:46:34 51°13.661 2°55.959 125.7 0.1 176 -999
2010-07-13 04:46:39 51°13.661 2°55.959 125.7 -999 4 -999
2010-07-13 04:46:44 51°13.661 2°55.959 125.7 0.1 344 -999
2010-07-13 04:46:49 51°13.661 2°55.959 125.7 -999 286 -999
2010-07-13 04:46:54 51°13.661 2°55.959 125.8 -999 351 -999
2010-07-13 04:46:59 51°13.661 2°55.959 125.8 -999 346 -999
2010-07-13 04:47:04 51°13.661 2°55.96 125.8 -999 341 -999
2010-07-13 04:47:09 51°13.661 2°55.96 125.7 -999 328 -999
2010-07-13 04:47:14 51°13.661 2°55.96 125.7 0.1 7 -999
2010-07-13 04:47:19 51°13.661 2°55.96 125.7 -999 325 -999
2010-07-13 04:47:24 51°13.661 2°55.96 125.7 0.1 8 -999
2010-07-13 04:47:29 51°13.661 2°55.96 125.7 0.1 12 -999
2010-07-13 04:47:34 51°13.661 2°55.96 125.7 -999 318 -999
2010-07-13 04:47:39 51°13.661 2°55.96 125.7 -999 358 -999
2010-07-13 04:47:44 51°13.661 2°55.96 125.8 -999 46 -999
2010-07-13 04:47:49 51°13.661 2°55.96 125.8 -999 200 -999
2010-07-13 04:47:54 51°13.661 2°55.96 125.9 -999 305 -999
2010-07-13 04:47:59 51°13.661 2°55.961 125.9 -999 163 -999
2010-07-13 04:48:04 51°13.661 2°55.961 125.9 0.1 359 -999
2010-07-13 04:48:09 51°13.661 2°55.961 125.9 0.1 2 -999
2010-07-13 04:48:14 51°13.661 2°55.961 125.9 -999 353 -999
2010-07-13 04:48:19 51°13.661 2°55.961 125.9 -999 217 -999
2010-07-13 04:48:24 51°13.661 2°55.961 126 -999 32 -999
2010-07-13 04:48:29 51°13.661 2°55.961 126 0.1 359 -999
2010-07-13 04:48:34 51°13.661 2°55.961 126 0.1 -999 -999
2010-07-13 04:48:39 51°13.661 2°55.961 126.1 0.1 353 -999
2010-07-13 04:48:44 51°13.661 2°55.961 126.1 -999 175 -999
2010-07-13 04:48:49 51°13.661 2°55.961 126.1 -999 209 -999
2010-07-13 04:48:54 51°13.661 2°55.961 126.1 0.1 195 -999
2010-07-13 04:48:59 51°13.661 2°55.961 126.1 0.1 174 -999
2010-07-13 04:49:04 51°13.661 2°55.961 126.2 -999 179 -999
2010-07-13 04:49:09 51°13.661 2°55.961 126.2 -999 161 -999
2010-07-13 04:49:14 51°13.661 2°55.961 126.2 -999 204 -999
2010-07-13 04:49:19 51°13.661 2°55.96 126.3 -999 275 -999
2010-07-13 04:49:24 51°13.661 2°55.961 126.3 0.1 359 -999
2010-07-13 04:49:29 51°13.661 2°55.961 126.3 -999 206 -999
2010-07-13 04:49:34 51°13.661 2°55.961 126.3 -999 357 -999
2010-07-13 04:49:39 51°13.66 2°55.961 126.3 0.1 190 -999
2010-07-13 04:49:44 51°13.66 2°55.961 126.3 0.1 185 -999
2010-07-13 04:49:49 51°13.66 2°55.961 126.3 0.1 176 -999
2010-07-13 04:49:54 51°13.66 2°55.961 126.4 -999 207 -999
2010-07-13 04:49:59 51°13.66 2°55.961 126.4 -999 299 -999
2010-07-13 04:50:04 51°13.66 2°55.961 126.4 0.2 3 -999
2010-07-13 04:50:09 51°13.659 2°55.961 126.4 0.1 354 -999
2010-07-13 04:50:14 51°13.659 2°55.961 126.3 -999 332 -999
2010-07-13 04:50:19 51°13.659 2°55.961 126.3 0.1 358 -999
2010-07-13 04:50:24 51°13.659 2°55.961 126.2 0.2 -999 -999
2010-07-13 04:50:29 51°13.659 2°55.96 126.2 0.1 351 -999
2010-07-13 04:50:34 51°13.659 2°55.961 126.1 -999 47 -999
2010-07-13 04:50:39 51°13.659 2°55.96 126.1 -999 183 -999
2010-07-13 04:50:44 51°13.659 2°55.96 126 0.1 193 -999
2010-07-13 04:50:49 51°13.659 2°55.96 126 0.1 189 -999
2010-07-13 04:50:54 51°13.659 2°55.96 126 -999 267 -999
2010-07-13 04:50:59 51°13.659 2°55.96 126 -999 349 -999
2010-07-13 04:51:04 51°13.659 2°55.96 125.9 -999 122 -999
2010-07-13 04:51:09 51°13.659 2°55.96 125.9 0.1 7 -999
2010-07-13 04:51:14 51°13.659 2°55.96 125.9 0.1 345 -999
2010-07-13 04:51:19 51°13.66 2°55.96 125.9 0.1 359 -999
2010-07-13 04:51:24 51°13.66 2°55.96 125.9 0.1 1 -999
2010-07-13 04:51:29 51°13.66 2°55.959 125.9 0.1 349 -999
2010-07-13 04:51:34 51°13.66 2°55.959 125.9 -999 266 -999
2010-07-13 04:51:39 51°13.66 2°55.959 125.9 0.1 17 -999
2010-07-13 04:51:44 51°13.66 2°55.959 125.9 0.1 -999 -999
2010-07-13 04:51:49 51°13.66 2°55.959 126 -999 328 -999
2010-07-13 04:51:54 51°13.66 2°55.959 126 -999 211 -999
2010-07-13 04:51:59 51°13.661 2°55.959 126 -999 29 -999
2010-07-13 04:52:04 51°13.661 2°55.959 126 -999 218 -999
2010-07-13 04:52:09 51°13.661 2°55.959 126 -999 218 -999
2010-07-13 04:52:14 51°13.661 2°55.959 125.9 0.1 201 -999
2010-07-13 04:52:19 51°13.66 2°55.959 125.9 -999 299 -999
2010-07-13 04:52:24 51°13.66 2°55.959 125.9 -999 214 -999
2010-07-13 04:52:29 51°13.66 2°55.959 125.8 -999 167 -999
2010-07-13 04:52:34 51°13.661 2°55.959 125.8 -999 12 -999
2010-07-13 04:52:39 51°13.66 2°55.959 125.8 -999 137 -999
2010-07-13 04:52:44 51°13.66 2°55.959 125.8 -999 22 -999
2010-07-13 04:52:49 51°13.66 2°55.959 125.8 -999 349 -999
2010-07-13 04:52:54 51°13.66 2°55.959 125.8 0.1 352 -999
2010-07-13 04:52:59 51°13.66 2°55.959 125.8 -999 333 -999
2010-07-13 04:53:04 51°13.66 2°55.959 125.8 0.1 343 -999
2010-07-13 04:53:09 51°13.659 2°55.96 125.8 0.1 193 -999
2010-07-13 04:53:14 51°13.659 2°55.96 125.8 -999 239 -999
2010-07-13 04:53:19 51°13.659 2°55.96 125.8 -999 193 -999
2010-07-13 04:53:24 51°13.659 2°55.96 125.8 -999 338 -999
2010-07-13 04:53:29 51°13.659 2°55.96 125.8 -999 200 -999
2010-07-13 04:53:34 51°13.658 2°55.96 125.8 -999 167 -999
2010-07-13 04:53:39 51°13.658 2°55.96 125.8 -999 180 -999
2010-07-13 04:53:44 51°13.658 2°55.961 125.9 -999 155 -999
2010-07-13 04:53:49 51°13.659 2°55.96 125.9 -999 251 -999
2010-07-13 04:53:54 51°13.659 2°55.96 126 -999 189 -999
2010-07-13 04:53:59 51°13.659 2°55.96 126.1 -999 180 -999
2010-07-13 04:54:04 51°13.66 2°55.96 126.2 -999 184 -999
2010-07-13 04:54:09 51°13.66 2°55.96 126.2 -999 196 -999
2010-07-13 04:54:14 51°13.661 2°55.96 126.2 -999 53 -999
2010-07-13 04:54:19 51°13.661 2°55.959 126.2 0.1 219 -999
2010-07-13 04:54:24 51°13.661 2°55.959 126.2 -999 116 -999
2010-07-13 04:54:29 51°13.661 2°55.959 126.2 -999 238 -999
2010-07-13 04:54:34 51°13.661 2°55.959 126.2 -999 287 -999
2010-07-13 04:54:39 51°13.661 2°55.959 126.2 -999 21 -999
2010-07-13 04:54:44 51°13.661 2°55.959 126.2 -999 28 -999
2010-07-13 04:54:49 51°13.66 2°55.959 126.2 -999 32 -999
2010-07-13 04:54:54 51°13.66 2°55.959 126.3 -999 215 -999
2010-07-13 04:54:59 51°13.661 2°55.959 126.3 -999 215 -999
2010-07-13 04:55:04 51°13.661 2°55.959 126.3 -999 208 -999
2010-07-13 04:55:09 51°13.661 2°55.958 126.3 -999 222 -999
2010-07-13 04:55:14 51°13.662 2°55.958 126.3 -999 49 -999
2010-07-13 04:55:19 51°13.662 2°55.958 126.3 -999 105 -999
2010-07-13 04:55:24 51°13.661 2°55.958 126.3 -999 43 -999
2010-07-13 04:55:29 51°13.662 2°55.958 126.3 -999 44 -999
2010-07-13 04:55:34 51°13.662 2°55.958 126.3 -999 257 -999
2010-07-13 04:55:39 51°13.662 2°55.957 126.4 -999 77 -999
2010-07-13 04:55:44 51°13.662 2°55.957 126.4 -999 226 -999
2010-07-13 04:55:49 51°13.662 2°55.957 126.4 -999 201 -999
2010-07-13 04:55:54 51°13.662 2°55.957 126.4 -999 292 -999
2010-07-13 04:55:59 51°13.662 2°55.957 126.4 -999 354 -999
2010-07-13 04:56:04 51°13.662 2°55.957 126.4 -999 246 -999
2010-07-13 04:56:09 51°13.662 2°55.957 126.4 0.1 221 -999
2010-07-13 04:56:14 51°13.662 2°55.957 126.4 -999 193 -999
2010-07-13 04:56:19 51°13.661 2°55.957 126.4 -999 216 -999
2010-07-13 04:56:24 51°13.66 2°55.957 126.4 -999 64 -999
2010-07-13 04:56:29 51°13.659 2°55.958 126.4 -999 46 -999
2010-07-13 04:56:34 51°13.659 2°55.958 126.4 -999 204 -999
2010-07-13 04:56:39 51°13.659 2°55.959 126.4 -999 215 -999
2010-07-13 04:56:44 51°13.659 2°55.959 126.4 -999 230 -999
2010-07-13 04:56:49 51°13.658 2°55.959 126.4 -999 218 -999
2010-07-13 04:56:54 51°13.658 2°55.959 126.3 -999 194 -999
2010-07-13 04:56:59 51°13.658 2°55.959 126.2 -999 230 -999
2010-07-13 04:57:04 51°13.658 2°55.959 126.2 -999 150 -999
2010-07-13 04:57:09 51°13.658 2°55.959 126.2 -999 38 -999
2010-07-13 04:57:14 51°13.658 2°55.959 126.2 0.1 33 -999
2010-07-13 04:57:19 51°13.658 2°55.959 126.3 -999 28 -999
2010-07-13 04:57:24 51°13.658 2°55.959 126.3 -999 81 -999
2010-07-13 04:57:29 51°13.658 2°55.959 126.3 0.1 200 -999
2010-07-13 04:57:34 51°13.658 2°55.959 126.4 -999 187 -999
2010-07-13 04:57:39 51°13.658 2°55.959 126.4 -999 190 -999
2010-07-13 04:57:44 51°13.658 2°55.959 126.4 -999 354 -999
2010-07-13 04:57:49 51°13.658 2°55.959 126.4 -999 143 -999
2010-07-13 04:57:54 51°13.658 2°55.959 126.4 -999 280 -999
2010-07-13 04:57:59 51°13.658 2°55.959 126.2 -999 198 -999
2010-07-13 04:58:04 51°13.658 2°55.959 126.2 -999 246 -999
2010-07-13 04:58:09 51°13.658 2°55.959 126 -999 319 -999
2010-07-13 04:58:14 51°13.658 2°55.959 126 0.1 341 -999
2010-07-13 04:58:19 51°13.659 2°55.959 126 0.1 357 -999
2010-07-13 04:58:24 51°13.659 2°55.958 126 -999 275 -999
2010-07-13 04:58:29 51°13.659 2°55.958 126 -999 9 -999
2010-07-13 04:58:34 51°13.659 2°55.959 126 -999 6 -999
2010-07-13 04:58:39 51°13.659 2°55.959 126 -999 32 -999
2010-07-13 04:58:44 51°13.659 2°55.959 126 -999 205 -999
2010-07-13 04:58:49 51°13.659 2°55.959 126 -999 55 -999
2010-07-13 04:58:54 51°13.659 2°55.959 126 -999 80 -999
2010-07-13 04:58:59 51°13.659 2°55.958 126.1 -999 6 -999
2010-07-13 04:59:04 51°13.659 2°55.958 126.1 -999 247 -999
2010-07-13 04:59:09 51°13.66 2°55.958 126.1 -999 335 -999
2010-07-13 04:59:14 51°13.66 2°55.957 126 -999 325 -999
2010-07-13 04:59:19 51°13.661 2°55.957 126 -999 231 -999
2010-07-13 04:59:24 51°13.661 2°55.957 125.9 -999 301 -999
2010-07-13 04:59:29 51°13.661 2°55.956 125.8 -999 266 -999
2010-07-13 04:59:34 51°13.661 2°55.956 125.8 -999 6 -999
2010-07-13 04:59:39 51°13.661 2°55.957 125.8 0.1 27 -999
2010-07-13 04:59:44 51°13.66 2°55.957 125.8 -999 357 -999
2010-07-13 04:59:49 51°13.659 2°55.957 125.7 -999 261 -999
2010-07-13 04:59:54 51°13.659 2°55.957 125.7 0.1 195 -999
2010-07-13 04:59:59 51°13.659 2°55.958 125.7 0.1 185 -999
2010-07-13 05:00:04 51°13.658 2°55.958 125.7 -999 183 -999
2010-07-13 05:00:09 51°13.658 2°55.958 125.7 -999 205 -999
2010-07-13 05:00:14 51°13.659 2°55.958 125.7 0.1 23 -999
2010-07-13 05:00:19 51°13.659 2°55.957 125.7 0.1 8 -999
2010-07-13 05:00:24 51°13.659 2°55.957 125.7 -999 205 -999
2010-07-13 05:00:29 51°13.659 2°55.957 125.7 0.1 197 -999
2010-07-13 05:00:34 51°13.66 2°55.957 125.7 0.1 193 -999
2010-07-13 05:00:39 51°13.66 2°55.957 125.7 0.1 185 -999
2010-07-13 05:00:44 51°13.66 2°55.956 125.7 -999 177 -999
2010-07-13 05:00:49 51°13.66 2°55.957 125.7 -999 169 -999
2010-07-13 05:00:54 51°13.66 2°55.957 125.7 -999 196 -999
2010-07-13 05:00:59 51°13.66 2°55.957 125.7 -999 262 -999
2010-07-13 05:01:04 51°13.66 2°55.957 125.7 -999 289 -999
2010-07-13 05:01:09 51°13.66 2°55.957 125.7 -999 350 -999
2010-07-13 05:01:14 51°13.66 2°55.956 125.7 -999 192 -999
2010-07-13 05:01:19 51°13.66 2°55.956 125.7 -999 178 -999
2010-07-13 05:01:24 51°13.661 2°55.956 125.7 -999 175 -999
2010-07-13 05:01:29 51°13.662 2°55.955 125.7 0.1 195 -999
2010-07-13 05:01:34 51°13.662 2°55.955 125.7 -999 185 -999
2010-07-13 05:01:39 51°13.662 2°55.955 125.7 0.1 194 -999
2010-07-13 05:01:44 51°13.663 2°55.955 125.7 0.1 180 -999
2010-07-13 05:01:49 51°13.663 2°55.954 125.8 0.1 186 -999
2010-07-13 05:01:54 51°13.664 2°55.954 125.8 0.1 193 -999
2010-07-13 05:01:59 51°13.664 2°55.955 125.9 -999 140 -999
2010-07-13 05:02:04 51°13.664 2°55.955 125.9 -999 200 -999
2010-07-13 05:02:09 51°13.664 2°55.955 125.9 -999 83 -999
2010-07-13 05:02:14 51°13.664 2°55.955 125.9 -999 256 -999
2010-07-13 05:02:19 51°13.664 2°55.955 125.9 -999 347 -999
2010-07-13 05:02:24 51°13.664 2°55.955 125.9 0.1 6 -999
2010-07-13 05:02:29 51°13.665 2°55.955 125.9 -999 337 -999
2010-07-13 05:02:34 51°13.665 2°55.954 125.9 -999 204 -999
2010-07-13 05:02:39 51°13.665 2°55.954 125.9 -999 179 -999
2010-07-13 05:02:44 51°13.665 2°55.954 125.9 0.1 182 -999
2010-07-13 05:02:49 51°13.665 2°55.954 125.9 0.1 210 -999
2010-07-13 05:02:54 51°13.665 2°55.954 125.9 -999 302 -999
2010-07-13 05:02:59 51°13.665 2°55.954 126.1 -999 295 -999
2010-07-13 05:03:04 51°13.665 2°55.954 126.1 -999 256 -999
2010-07-13 05:03:09 51°13.665 2°55.954 126.1 -999 278 -999
2010-07-13 05:03:14 51°13.665 2°55.954 126.1 -999 217 -999
2010-07-13 05:03:19 51°13.665 2°55.954 126.1 -999 207 -999
2010-07-13 05:03:24 51°13.665 2°55.954 126.1 -999 283 -999
2010-07-13 05:03:29 51°13.665 2°55.954 126.1 -999 291 -999
2010-07-13 05:03:34 51°13.665 2°55.954 126.1 -999 297 -999
2010-07-13 05:03:39 51°13.665 2°55.954 126.1 -999 293 -999
2010-07-13 05:03:44 51°13.665 2°55.954 126.1 -999 320 -999
2010-07-13 05:03:49 51°13.665 2°55.954 126.1 -999 341 -999
2010-07-13 05:03:54 51°13.665 2°55.954 126.1 -999 339 -999
2010-07-13 05:03:59 51°13.665 2°55.954 126.2 0.1 347 -999
2010-07-13 05:04:04 51°13.665 2°55.954 126.2 -999 304 -999
2010-07-13 05:04:09 51°13.664 2°55.954 126.3 0.1 191 -999
2010-07-13 05:04:14 51°13.664 2°55.954 126.3 -999 247 -999
2010-07-13 05:04:19 51°13.664 2°55.954 126.3 -999 220 -999
2010-07-13 05:04:24 51°13.664 2°55.954 126.3 -999 341 -999
2010-07-13 05:04:29 51°13.664 2°55.954 126.3 0.1 337 -999
2010-07-13 05:04:34 51°13.664 2°55.954 126.3 -999 309 -999
2010-07-13 05:04:39 51°13.664 2°55.954 126.3 -999 324 -999
2010-07-13 05:04:44 51°13.664 2°55.954 126.3 -999 215 -999
2010-07-13 05:04:49 51°13.664 2°55.954 126.3 0.1 350 -999
2010-07-13 05:04:54 51°13.665 2°55.954 126.3 0.1 345 -999
2010-07-13 05:04:59 51°13.664 2°55.954 126.3 -999 201 -999
2010-07-13 05:05:04 51°13.664 2°55.954 126.3 0.1 195 -999
2010-07-13 05:05:09 51°13.664 2°55.955 126.3 -999 211 -999
2010-07-13 05:05:14 51°13.664 2°55.955 126.3 -999 352 -999
2010-07-13 05:05:19 51°13.664 2°55.955 126.3 -999 303 -999
2010-07-13 05:05:24 51°13.664 2°55.955 126.3 0.1 190 -999
2010-07-13 05:05:29 51°13.664 2°55.955 126.3 -999 207 -999
2010-07-13 05:05:34 51°13.664 2°55.955 126.3 0.1 354 -999
2010-07-13 05:05:39 51°13.663 2°55.955 126.3 -999 341 -999
2010-07-13 05:05:44 51°13.663 2°55.955 126.3 -999 261 -999
2010-07-13 05:05:49 51°13.663 2°55.956 126.3 0.1 343 -999
2010-07-13 05:05:54 51°13.663 2°55.956 126.3 0.1 353 -999
2010-07-13 05:05:59 51°13.663 2°55.956 126.3 -999 345 -999
2010-07-13 05:06:04 51°13.663 2°55.956 126.3 -999 346 -999
2010-07-13 05:06:09 51°13.663 2°55.956 126.3 -999 313 -999
2010-07-13 05:06:14 51°13.663 2°55.955 126.3 -999 331 -999
2010-07-13 05:06:19 51°13.663 2°55.955 126.3 -999 262 -999
2010-07-13 05:06:24 51°13.663 2°55.955 126.3 -999 210 -999
2010-07-13 05:06:29 51°13.663 2°55.955 126.3 0.1 351 -999
2010-07-13 05:06:34 51°13.664 2°55.955 126.3 0.1 355 -999
2010-07-13 05:06:39 51°13.664 2°55.955 126.2 -999 335 -999
2010-07-13 05:06:44 51°13.664 2°55.955 126.2 -999 203 -999
2010-07-13 05:06:49 51°13.664 2°55.955 126.2 -999 345 -999
2010-07-13 05:06:54 51°13.664 2°55.955 126.2 -999 208 -999
2010-07-13 05:06:59 51°13.664 2°55.955 126.2 -999 351 -999
2010-07-13 05:07:04 51°13.664 2°55.955 126.2 0.1 355 -999
2010-07-13 05:07:09 51°13.664 2°55.955 126.2 -999 329 -999
2010-07-13 05:07:14 51°13.664 2°55.955 126.2 -999 10 -999
2010-07-13 05:07:19 51°13.664 2°55.955 126.2 0.1 357 -999
2010-07-13 05:07:24 51°13.664 2°55.955 126.2 0.1 350 -999
2010-07-13 05:07:29 51°13.663 2°55.956 126.2 0.1 352 -999
2010-07-13 05:07:34 51°13.663 2°55.956 126.2 -999 188 -999
2010-07-13 05:07:39 51°13.663 2°55.956 126.2 0.1 184 -999
2010-07-13 05:07:44 51°13.663 2°55.956 126.2 -999 179 -999
2010-07-13 05:07:49 51°13.663 2°55.956 126.2 -999 274 -999
2010-07-13 05:07:54 51°13.663 2°55.956 126.2 -999 353 -999
2010-07-13 05:07:59 51°13.662 2°55.956 126.2 -999 172 -999
2010-07-13 05:08:04 51°13.662 2°55.956 126.2 0.1 191 -999
2010-07-13 05:08:09 51°13.662 2°55.956 126.2 -999 197 -999
2010-07-13 05:08:14 51°13.662 2°55.956 126.2 -999 350 -999
2010-07-13 05:08:19 51°13.662 2°55.956 126.2 0.1 354 -999
2010-07-13 05:08:24 51°13.662 2°55.957 126.3 -999 351 -999
2010-07-13 05:08:29 51°13.662 2°55.957 126.3 -999 185 -999
2010-07-13 05:08:34 51°13.662 2°55.957 126.2 -999 195 -999
2010-07-13 05:08:39 51°13.662 2°55.957 126.2 0.1 353 -999
2010-07-13 05:08:44 51°13.662 2°55.957 126.1 0.1 353 -999
2010-07-13 05:08:49 51°13.662 2°55.957 126.1 0.1 183 -999
2010-07-13 05:08:54 51°13.662 2°55.957 126.1 0.1 183 -999
2010-07-13 05:08:59 51°13.662 2°55.956 126.1 0.1 183 -999
2010-07-13 05:09:04 51°13.662 2°55.956 126.1 -999 359 -999
2010-07-13 05:09:09 51°13.662 2°55.956 126.1 -999 355 -999
2010-07-13 05:09:14 51°13.662 2°55.956 126.1 -999 355 -999
2010-07-13 05:09:19 51°13.662 2°55.956 126.1 0.1 355 -999
2010-07-13 05:09:24 51°13.662 2°55.956 126.1 -999 347 -999
2010-07-13 05:09:29 51°13.662 2°55.956 126.1 -999 201 -999
2010-07-13 05:09:34 51°13.662 2°55.956 126.1 -999 190 -999
2010-07-13 05:09:39 51°13.662 2°55.956 126.2 -999 181 -999
2010-07-13 05:09:44 51°13.663 2°55.956 126.2 -999 204 -999
2010-07-13 05:09:49 51°13.663 2°55.956 126.2 -999 184 -999
2010-07-13 05:09:54 51°13.663 2°55.956 126.2 -999 194 -999
2010-07-13 05:09:59 51°13.663 2°55.956 126.2 -999 195 -999
2010-07-13 05:10:04 51°13.663 2°55.956 126.2 -999 184 -999
2010-07-13 05:10:09 51°13.663 2°55.956 126.2 -999 197 -999
2010-07-13 05:10:14 51°13.663 2°55.956 126.3 -999 330 -999
2010-07-13 05:10:19 51°13.663 2°55.956 126.3 -999 321 -999
2010-07-13 05:10:24 51°13.663 2°55.956 126.4 -999 344 -999
2010-07-13 05:10:29 51°13.663 2°55.956 126.4 -999 272 -999
2010-07-13 05:10:34 51°13.663 2°55.956 126.4 -999 302 -999
2010-07-13 05:10:39 51°13.662 2°55.956 126.4 -999 193 -999
2010-07-13 05:10:44 51°13.663 2°55.956 126.4 -999 312 -999
2010-07-13 05:10:49 51°13.663 2°55.956 126.3 -999 199 -999
2010-07-13 05:10:54 51°13.663 2°55.956 126.3 -999 187 -999
2010-07-13 05:10:59 51°13.663 2°55.956 126.3 -999 338 -999
2010-07-13 05:11:04 51°13.663 2°55.956 126.3 -999 340 -999
2010-07-13 05:11:09 51°13.663 2°55.956 126.2 0.1 356 -999
2010-07-13 05:11:14 51°13.663 2°55.956 126.2 0.1 358 -999
2010-07-13 05:11:19 51°13.663 2°55.956 126.2 -999 267 -999
2010-07-13 05:11:24 51°13.663 2°55.956 126.3 0.1 178 -999
2010-07-13 05:11:29 51°13.663 2°55.956 126.3 0.1 175 -999
2010-07-13 05:11:34 51°13.663 2°55.956 126.4 0.1 176 -999
2010-07-13 05:11:39 51°13.663 2°55.956 126.4 0.1 351 -999
2010-07-13 05:11:44 51°13.663 2°55.956 126.4 -999 327 -999
2010-07-13 05:11:49 51°13.663 2°55.956 126.4 -999 266 -999
2010-07-13 05:11:54 51°13.663 2°55.956 126.4 0.1 191 -999
2010-07-13 05:11:59 51°13.662 2°55.956 126.4 0.1 189 -999
2010-07-13 05:12:04 51°13.662 2°55.956 126.4 0.1 186 -999
2010-07-13 05:12:09 51°13.662 2°55.956 126.3 0.1 183 -999
2010-07-13 05:12:14 51°13.663 2°55.956 126.3 0.1 348 -999
2010-07-13 05:12:19 51°13.663 2°55.956 126.3 0.1 353 -999
2010-07-13 05:12:24 51°13.663 2°55.956 126.3 0.1 354 -999
2010-07-13 05:12:29 51°13.663 2°55.956 126.3 -999 338 -999
2010-07-13 05:12:34 51°13.663 2°55.956 126.2 -999 329 -999
2010-07-13 05:12:39 51°13.663 2°55.956 126 0.1 344 -999
2010-07-13 05:12:44 51°13.663 2°55.956 125.9 0.1 354 -999
2010-07-13 05:12:49 51°13.663 2°55.956 125.9 -999 257 -999
2010-07-13 05:12:54 51°13.664 2°55.956 125.9 -999 2 -999
2010-07-13 05:12:59 51°13.664 2°55.956 125.9 -999 207 -999
2010-07-13 05:13:04 51°13.664 2°55.956 125.9 -999 176 -999
2010-07-13 05:13:09 51°13.664 2°55.956 125.9 -999 359 -999
2010-07-13 05:13:14 51°13.664 2°55.956 125.9 -999 200 -999
2010-07-13 05:13:19 51°13.664 2°55.956 125.9 -999 200 -999
2010-07-13 05:13:24 51°13.664 2°55.956 125.8 -999 206 -999
2010-07-13 05:13:29 51°13.664 2°55.956 125.8 0.1 192 -999
2010-07-13 05:13:34 51°13.664 2°55.956 125.7 0.1 184 -999
2010-07-13 05:13:39 51°13.664 2°55.956 125.7 -999 229 -999
2010-07-13 05:13:44 51°13.664 2°55.956 125.7 -999 327 -999
2010-07-13 05:13:49 51°13.664 2°55.956 125.7 -999 180 -999
2010-07-13 05:13:54 51°13.664 2°55.956 125.8 -999 178 -999
2010-07-13 05:13:59 51°13.664 2°55.956 125.8 -999 183 -999
2010-07-13 05:14:04 51°13.664 2°55.956 125.8 -999 200 -999
2010-07-13 05:14:09 51°13.664 2°55.956 125.9 -999 184 -999
2010-07-13 05:14:14 51°13.664 2°55.956 125.9 -999 341 -999
2010-07-13 05:14:19 51°13.664 2°55.956 126 -999 345 -999
2010-07-13 05:14:24 51°13.664 2°55.956 126.1 -999 3 -999
2010-07-13 05:14:29 51°13.664 2°55.956 126.2 -999 28 -999
2010-07-13 05:14:34 51°13.664 2°55.956 126.2 -999 196 -999
2010-07-13 05:14:39 51°13.664 2°55.956 126.3 -999 286 -999
2010-07-13 05:14:44 51°13.664 2°55.956 126.3 -999 197 -999
2010-07-13 05:14:49 51°13.664 2°55.956 126.3 0.1 190 -999
2010-07-13 05:14:54 51°13.664 2°55.956 126.2 -999 197 -999
2010-07-13 05:14:59 51°13.665 2°55.956 126.1 -999 337 -999
2010-07-13 05:15:04 51°13.665 2°55.956 126 -999 265 -999
2010-07-13 05:15:09 51°13.664 2°55.956 126 -999 182 -999
2010-07-13 05:15:14 51°13.664 2°55.956 126 -999 209 -999
2010-07-13 05:15:19 51°13.664 2°55.956 125.9 0.1 183 -999
2010-07-13 05:15:24 51°13.664 2°55.956 125.9 -999 312 -999
2010-07-13 05:15:29 51°13.664 2°55.956 125.9 -999 220 -999
2010-07-13 05:15:34 51°13.664 2°55.956 125.9 -999 312 -999
2010-07-13 05:15:39 51°13.664 2°55.956 125.9 -999 193 -999
2010-07-13 05:15:44 51°13.664 2°55.956 125.9 -999 186 -999
2010-07-13 05:15:49 51°13.664 2°55.956 125.9 -999 203 -999
2010-07-13 05:15:54 51°13.664 2°55.956 125.9 0.1 349 -999
2010-07-13 05:15:59 51°13.664 2°55.956 125.9 0.1 184 -999
2010-07-13 05:16:04 51°13.664 2°55.956 125.9 0.1 190 -999
2010-07-13 05:16:09 51°13.664 2°55.956 125.8 0.1 186 -999
2010-07-13 05:16:14 51°13.664 2°55.956 125.8 -999 337 -999
2010-07-13 05:16:19 51°13.664 2°55.956 125.8 0.1 193 -999
2010-07-13 05:16:24 51°13.664 2°55.956 125.7 0.1 178 -999
2010-07-13 05:16:29 51°13.665 2°55.956 125.7 0.1 346 -999
2010-07-13 05:16:34 51°13.665 2°55.956 125.7 0.1 356 -999
2010-07-13 05:16:39 51°13.665 2°55.956 125.7 -999 343 -999
2010-07-13 05:16:44 51°13.665 2°55.956 125.7 -999 354 -999
2010-07-13 05:16:49 51°13.665 2°55.956 125.7 -999 327 -999
2010-07-13 05:16:54 51°13.665 2°55.956 125.8 -999 358 -999
2010-07-13 05:16:59 51°13.665 2°55.956 125.8 -999 204 -999
2010-07-13 05:17:04 51°13.665 2°55.956 125.9 -999 184 -999
2010-07-13 05:17:09 51°13.665 2°55.956 126.1 0.1 188 -999
2010-07-13 05:17:14 51°13.665 2°55.956 126.1 0.1 182 -999
2010-07-13 05:17:19 51°13.665 2°55.956 126.1 -999 343 -999
2010-07-13 05:17:24 51°13.665 2°55.956 126.1 0.1 353 -999
2010-07-13 05:17:29 51°13.665 2°55.956 126.1 -999 338 -999
2010-07-13 05:17:34 51°13.665 2°55.956 126 -999 342 -999
2010-07-13 05:17:39 51°13.665 2°55.956 126 -999 197 -999
2010-07-13 05:17:44 51°13.665 2°55.956 126 0.1 184 -999
2010-07-13 05:17:49 51°13.665 2°55.956 126 -999 288 -999
2010-07-13 05:17:54 51°13.665 2°55.956 126 -999 182 -999
2010-07-13 05:17:59 51°13.665 2°55.956 126 0.1 188 -999
2010-07-13 05:18:04 51°13.665 2°55.956 126 0.1 187 -999
2010-07-13 05:18:09 51°13.665 2°55.956 125.9 -999 197 -999
2010-07-13 05:18:14 51°13.665 2°55.956 125.9 -999 192 -999
2010-07-13 05:18:19 51°13.665 2°55.956 125.8 -999 210 -999
2010-07-13 05:18:24 51°13.665 2°55.957 125.8 0.1 191 -999
2010-07-13 05:18:29 51°13.665 2°55.957 125.8 -999 281 -999
2010-07-13 05:18:34 51°13.665 2°55.957 125.8 -999 339 -999
2010-07-13 05:18:39 51°13.665 2°55.957 125.8 -999 335 -999
2010-07-13 05:18:44 51°13.665 2°55.957 125.8 -999 214 -999
2010-07-13 05:18:49 51°13.665 2°55.957 125.8 -999 188 -999
2010-07-13 05:18:54 51°13.665 2°55.957 125.8 0.1 188 -999
2010-07-13 05:18:59 51°13.665 2°55.957 125.8 0.1 183 -999
2010-07-13 05:19:04 51°13.665 2°55.957 125.8 0.1 182 -999
2010-07-13 05:19:09 51°13.665 2°55.957 125.9 -999 190 -999
2010-07-13 05:19:14 51°13.665 2°55.957 125.9 -999 190 -999
2010-07-13 05:19:19 51°13.665 2°55.956 125.9 -999 204 -999
2010-07-13 05:19:24 51°13.665 2°55.956 126 -999 213 -999
2010-07-13 05:19:29 51°13.665 2°55.956 126 -999 195 -999
2010-07-13 05:19:34 51°13.665 2°55.956 125.9 0.1 351 -999
2010-07-13 05:19:39 51°13.665 2°55.956 125.9 -999 340 -999
2010-07-13 05:19:44 51°13.665 2°55.956 125.9 -999 334 -999
2010-07-13 05:19:49 51°13.665 2°55.956 125.8 -999 294 -999
2010-07-13 05:19:54 51°13.665 2°55.956 125.8 -999 338 -999
2010-07-13 05:19:59 51°13.665 2°55.956 125.7 0.1 188 -999
2010-07-13 05:20:04 51°13.665 2°55.956 125.6 -999 284 -999
2010-07-13 05:20:09 51°13.665 2°55.956 125.5 0.1 354 -999
2010-07-13 05:20:14 51°13.665 2°55.957 125.4 -999 328 -999
2010-07-13 05:20:19 51°13.665 2°55.957 125.4 -999 344 -999
2010-07-13 05:20:24 51°13.665 2°55.957 125.4 -999 215 -999
2010-07-13 05:20:29 51°13.665 2°55.957 125.4 -999 249 -999
2010-07-13 05:20:34 51°13.665 2°55.957 125.5 -999 335 -999
2010-07-13 05:20:39 51°13.665 2°55.957 125.6 -999 256 -999
2010-07-13 05:20:44 51°13.665 2°55.957 125.6 -999 179 -999
2010-07-13 05:20:49 51°13.665 2°55.957 125.6 -999 331 -999
2010-07-13 05:20:54 51°13.665 2°55.957 125.6 -999 212 -999
2010-07-13 05:20:59 51°13.665 2°55.957 125.6 -999 349 -999
2010-07-13 05:21:04 51°13.665 2°55.957 125.6 0.1 351 -999
2010-07-13 05:21:09 51°13.665 2°55.957 125.6 -999 209 -999
2010-07-13 05:21:14 51°13.665 2°55.957 125.6 0.1 183 -999
2010-07-13 05:21:19 51°13.665 2°55.957 125.6 0.1 186 -999
2010-07-13 05:21:24 51°13.666 2°55.957 125.7 -999 193 -999
2010-07-13 05:21:29 51°13.666 2°55.957 125.7 -999 190 -999
2010-07-13 05:21:34 51°13.666 2°55.957 125.7 -999 353 -999
2010-07-13 05:21:39 51°13.666 2°55.957 125.7 -999 218 -999
2010-07-13 05:21:44 51°13.666 2°55.957 125.7 -999 198 -999
2010-07-13 05:21:49 51°13.665 2°55.957 125.7 -999 339 -999
2010-07-13 05:21:54 51°13.665 2°55.957 125.7 -999 336 -999
2010-07-13 05:21:59 51°13.665 2°55.957 125.6 -999 218 -999
2010-07-13 05:22:04 51°13.665 2°55.957 125.6 0.1 351 -999
2010-07-13 05:22:09 51°13.665 2°55.957 125.6 -999 256 -999
2010-07-13 05:22:14 51°13.665 2°55.957 125.5 -999 334 -999
2010-07-13 05:22:19 51°13.665 2°55.957 125.5 -999 350 -999
2010-07-13 05:22:24 51°13.665 2°55.957 125.5 0.1 350 -999
2010-07-13 05:22:29 51°13.665 2°55.957 125.5 -999 330 -999
2010-07-13 05:22:34 51°13.665 2°55.957 125.5 0.1 184 -999
2010-07-13 05:22:39 51°13.665 2°55.957 125.5 -999 240 -999
2010-07-13 05:22:44 51°13.665 2°55.957 125.5 -999 222 -999
2010-07-13 05:22:49 51°13.665 2°55.957 125.5 -999 201 -999
2010-07-13 05:22:54 51°13.665 2°55.957 125.5 -999 285 -999
2010-07-13 05:22:59 51°13.665 2°55.956 125.5 -999 339 -999
2010-07-13 05:23:04 51°13.665 2°55.956 125.5 -999 296 -999
2010-07-13 05:23:09 51°13.665 2°55.956 125.5 -999 340 -999
2010-07-13 05:23:14 51°13.665 2°55.956 125.5 -999 327 -999
2010-07-13 05:23:19 51°13.665 2°55.956 125.5 -999 347 -999
2010-07-13 05:23:24 51°13.665 2°55.956 125.5 -999 325 -999
2010-07-13 05:23:29 51°13.665 2°55.956 125.5 -999 315 -999
2010-07-13 05:23:34 51°13.665 2°55.956 125.5 -999 332 -999
2010-07-13 05:23:39 51°13.665 2°55.956 125.4 0.1 193 -999
2010-07-13 05:23:44 51°13.665 2°55.956 125.3 -999 338 -999
2010-07-13 05:23:49 51°13.665 2°55.956 125.2 0.1 339 -999
2010-07-13 05:23:54 51°13.665 2°55.956 125.2 0.1 355 -999
2010-07-13 05:23:59 51°13.665 2°55.956 125.2 -999 299 -999
2010-07-13 05:24:04 51°13.665 2°55.956 125.2 0.1 191 -999
2010-07-13 05:24:09 51°13.665 2°55.956 125.2 -999 130 -999
2010-07-13 05:24:14 51°13.665 2°55.956 125.3 0.1 351 -999
2010-07-13 05:24:19 51°13.665 2°55.956 125.4 -999 287 -999
2010-07-13 05:24:24 51°13.665 2°55.956 125.5 -999 243 -999
2010-07-13 05:24:29 51°13.665 2°55.956 125.6 -999 166 -999
2010-07-13 05:24:34 51°13.665 2°55.956 125.6 -999 326 -999
2010-07-13 05:24:39 51°13.665 2°55.956 125.6 0.1 344 -999
2010-07-13 05:24:44 51°13.665 2°55.956 125.6 -999 326 -999
2010-07-13 05:24:49 51°13.665 2°55.956 125.6 0.1 352 -999
2010-07-13 05:24:54 51°13.665 2°55.956 125.6 0.1 347 -999
2010-07-13 05:24:59 51°13.665 2°55.956 125.6 -999 356 -999
2010-07-13 05:25:04 51°13.665 2°55.956 125.6 -999 213 -999
2010-07-13 05:25:09 51°13.665 2°55.956 125.6 -999 323 -999
2010-07-13 05:25:14 51°13.665 2°55.955 125.6 -999 318 -999
2010-07-13 05:25:19 51°13.665 2°55.955 125.6 -999 198 -999
2010-07-13 05:25:24 51°13.665 2°55.955 125.6 0.1 182 -999
2010-07-13 05:25:29 51°13.665 2°55.955 125.6 -999 209 -999
2010-07-13 05:25:34 51°13.665 2°55.955 125.6 -999 177 -999
2010-07-13 05:25:39 51°13.665 2°55.955 125.6 -999 205 -999
2010-07-13 05:25:44 51°13.665 2°55.955 125.6 0.1 191 -999
2010-07-13 05:25:49 51°13.665 2°55.955 125.6 -999 317 -999
2010-07-13 05:25:54 51°13.665 2°55.955 125.6 0.1 186 -999
2010-07-13 05:25:59 51°13.665 2°55.955 125.6 -999 187 -999
2010-07-13 05:26:04 51°13.666 2°55.955 125.6 -999 338 -999
2010-07-13 05:26:09 51°13.666 2°55.955 125.6 0.1 350 -999
2010-07-13 05:26:14 51°13.666 2°55.955 125.6 -999 199 -999
2010-07-13 05:26:19 51°13.665 2°55.955 125.6 -999 190 -999
2010-07-13 05:26:24 51°13.665 2°55.956 125.6 -999 306 -999
2010-07-13 05:26:29 51°13.666 2°55.956 125.7 -999 185 -999
2010-07-13 05:26:34 51°13.665 2°55.956 125.7 0.1 183 -999
2010-07-13 05:26:39 51°13.666 2°55.956 125.7 -999 200 -999
2010-07-13 05:26:44 51°13.666 2°55.956 125.7 0.1 342 -999
2010-07-13 05:26:49 51°13.666 2°55.956 125.7 0.1 342 -999
2010-07-13 05:26:54 51°13.666 2°55.956 125.7 0.1 5 -999
2010-07-13 05:26:59 51°13.666 2°55.956 125.7 -999 286 -999
2010-07-13 05:27:04 51°13.666 2°55.956 125.7 -999 218 -999
2010-07-13 05:27:09 51°13.666 2°55.956 125.7 -999 245 -999
2010-07-13 05:27:14 51°13.666 2°55.956 125.7 -999 184 -999
2010-07-13 05:27:19 51°13.666 2°55.956 125.7 -999 238 -999
2010-07-13 05:27:24 51°13.666 2°55.956 125.8 0.1 350 -999
2010-07-13 05:27:29 51°13.666 2°55.956 125.8 -999 239 -999
2010-07-13 05:27:34 51°13.665 2°55.956 125.9 -999 318 -999
2010-07-13 05:27:39 51°13.665 2°55.956 125.9 -999 336 -999
2010-07-13 05:27:44 51°13.665 2°55.957 126.1 -999 341 -999
2010-07-13 05:27:49 51°13.665 2°55.957 126.1 -999 230 -999
2010-07-13 05:27:54 51°13.665 2°55.957 126.2 -999 197 -999
2010-07-13 05:27:59 51°13.665 2°55.957 126.2 -999 225 -999
2010-07-13 05:28:04 51°13.665 2°55.957 126.2 0.1 349 -999
2010-07-13 05:28:09 51°13.665 2°55.957 126.2 0.1 350 -999
2010-07-13 05:28:14 51°13.665 2°55.957 126.2 -999 227 -999
2010-07-13 05:28:19 51°13.665 2°55.957 126.1 -999 261 -999
2010-07-13 05:28:24 51°13.666 2°55.957 126 -999 328 -999
2010-07-13 05:28:29 51°13.666 2°55.957 125.9 -999 338 -999
2010-07-13 05:28:34 51°13.666 2°55.957 125.8 -999 206 -999
2010-07-13 05:28:39 51°13.667 2°55.957 125.8 -999 328 -999
2010-07-13 05:28:44 51°13.667 2°55.957 125.8 -999 348 -999
2010-07-13 05:28:49 51°13.667 2°55.957 125.8 0.1 345 -999
2010-07-13 05:28:54 51°13.667 2°55.957 125.8 -999 325 -999
2010-07-13 05:28:59 51°13.667 2°55.957 125.8 -999 300 -999
2010-07-13 05:29:04 51°13.667 2°55.957 125.8 -999 356 -999
2010-07-13 05:29:09 51°13.667 2°55.957 125.9 -999 294 -999
2010-07-13 05:29:14 51°13.667 2°55.957 125.9 -999 199 -999
2010-07-13 05:29:19 51°13.667 2°55.957 126 -999 314 -999
2010-07-13 05:29:24 51°13.667 2°55.957 126 -999 336 -999
2010-07-13 05:29:29 51°13.667 2°55.957 126 0.1 204 -999
2010-07-13 05:29:34 51°13.667 2°55.957 126 -999 211 -999
2010-07-13 05:29:39 51°13.667 2°55.957 125.9 -999 229 -999
2010-07-13 05:29:44 51°13.668 2°55.957 125.9 0.1 350 -999
2010-07-13 05:29:49 51°13.668 2°55.957 125.9 0.1 342 -999
2010-07-13 05:29:54 51°13.668 2°55.957 125.8 -999 332 -999
2010-07-13 05:29:59 51°13.668 2°55.957 125.8 -999 332 -999
2010-07-13 05:30:04 51°13.668 2°55.957 125.8 -999 204 -999
2010-07-13 05:30:09 51°13.668 2°55.957 125.8 -999 238 -999
2010-07-13 05:30:14 51°13.668 2°55.957 125.8 0.1 180 -999
2010-07-13 05:30:19 51°13.668 2°55.956 125.8 0.1 192 -999
2010-07-13 05:30:24 51°13.668 2°55.956 125.8 -999 331 -999
2010-07-13 05:30:29 51°13.668 2°55.956 125.8 -999 322 -999
2010-07-13 05:30:34 51°13.668 2°55.956 125.8 -999 230 -999
2010-07-13 05:30:39 51°13.668 2°55.956 125.8 -999 356 -999
2010-07-13 05:30:44 51°13.668 2°55.956 125.8 0.1 190 -999
2010-07-13 05:30:49 51°13.667 2°55.956 125.8 0.1 185 -999
2010-07-13 05:30:54 51°13.668 2°55.956 125.8 -999 337 -999
2010-07-13 05:30:59 51°13.668 2°55.956 125.8 -999 199 -999
2010-07-13 05:31:04 51°13.668 2°55.956 125.8 -999 332 -999
2010-07-13 05:31:09 51°13.667 2°55.956 125.8 -999 225 -999
2010-07-13 05:31:14 51°13.667 2°55.956 125.8 -999 351 -999
2010-07-13 05:31:19 51°13.667 2°55.956 125.7 -999 260 -999
2010-07-13 05:31:24 51°13.667 2°55.956 125.7 -999 350 -999
2010-07-13 05:31:29 51°13.667 2°55.956 125.7 -999 204 -999
2010-07-13 05:31:34 51°13.667 2°55.956 125.7 -999 207 -999
2010-07-13 05:31:39 51°13.667 2°55.956 125.8 -999 161 -999
2010-07-13 05:31:44 51°13.667 2°55.956 125.8 -999 327 -999
2010-07-13 05:31:49 51°13.667 2°55.956 126 0.1 346 -999
2010-07-13 05:31:54 51°13.667 2°55.956 126.1 0.1 349 -999
2010-07-13 05:31:59 51°13.667 2°55.956 126.2 0.1 347 -999
2010-07-13 05:32:04 51°13.666 2°55.956 126.2 -999 196 -999
2010-07-13 05:32:09 51°13.667 2°55.957 126.2 -999 242 -999
2010-07-13 05:32:14 51°13.666 2°55.957 126.2 -999 204 -999
2010-07-13 05:32:19 51°13.667 2°55.957 126.2 0.1 345 -999
2010-07-13 05:32:24 51°13.666 2°55.957 126.1 -999 234 -999
2010-07-13 05:32:29 51°13.666 2°55.957 126 -999 203 -999
2010-07-13 05:32:34 51°13.666 2°55.957 125.9 0.1 350 -999
2010-07-13 05:32:39 51°13.666 2°55.957 125.8 0.1 344 -999
2010-07-13 05:32:44 51°13.666 2°55.956 125.8 0.1 338 -999
2010-07-13 05:32:49 51°13.666 2°55.956 125.7 -999 274 -999
2010-07-13 05:32:54 51°13.667 2°55.956 125.7 -999 221 -999
2010-07-13 05:32:59 51°13.667 2°55.956 125.7 -999 348 -999
2010-07-13 05:33:04 51°13.667 2°55.956 125.7 0.1 178 -999
2010-07-13 05:33:09 51°13.667 2°55.956 125.7 0.1 173 -999
2010-07-13 05:33:14 51°13.667 2°55.956 125.8 -999 347 -999
2010-07-13 05:33:19 51°13.666 2°55.956 125.8 0.1 189 -999
2010-07-13 05:33:24 51°13.666 2°55.956 125.9 0.1 183 -999
2010-07-13 05:33:29 51°13.666 2°55.956 125.9 -999 338 -999
2010-07-13 05:33:34 51°13.666 2°55.956 125.9 -999 325 -999
2010-07-13 05:33:39 51°13.666 2°55.956 125.9 0.1 340 -999
2010-07-13 05:33:44 51°13.666 2°55.956 125.9 -999 294 -999
2010-07-13 05:33:49 51°13.666 2°55.956 125.9 -999 295 -999
2010-07-13 05:33:54 51°13.666 2°55.956 125.8 -999 205 -999
2010-07-13 05:33:59 51°13.666 2°55.956 125.8 -999 211 -999
2010-07-13 05:34:04 51°13.666 2°55.956 125.8 -999 196 -999
2010-07-13 05:34:09 51°13.666 2°55.956 125.8 0.1 187 -999
2010-07-13 05:34:14 51°13.666 2°55.956 125.8 -999 221 -999
2010-07-13 05:34:19 51°13.666 2°55.956 125.8 -999 340 -999
2010-07-13 05:34:24 51°13.666 2°55.956 125.8 -999 203 -999
2010-07-13 05:34:29 51°13.665 2°55.956 125.8 -999 195 -999
2010-07-13 05:34:34 51°13.665 2°55.956 125.8 0.1 190 -999
2010-07-13 05:34:39 51°13.665 2°55.956 125.8 -999 346 -999
2010-07-13 05:34:44 51°13.665 2°55.956 125.8 -999 283 -999
2010-07-13 05:34:49 51°13.665 2°55.956 125.8 -999 192 -999
2010-07-13 05:34:54 51°13.665 2°55.956 125.8 -999 202 -999
2010-07-13 05:34:59 51°13.665 2°55.956 125.9 -999 357 -999
2010-07-13 05:35:04 51°13.665 2°55.956 126.1 -999 187 -999
2010-07-13 05:35:09 51°13.665 2°55.956 126.1 -999 329 -999
2010-07-13 05:35:14 51°13.665 2°55.955 126.1 -999 352 -999
2010-07-13 05:35:19 51°13.665 2°55.955 126.1 -999 328 -999
2010-07-13 05:35:24 51°13.665 2°55.955 126.1 0.1 346 -999
2010-07-13 05:35:29 51°13.665 2°55.955 126.1 -999 286 -999
2010-07-13 05:35:34 51°13.665 2°55.955 126.1 -999 225 -999
2010-07-13 05:35:39 51°13.665 2°55.955 126.1 -999 206 -999
2010-07-13 05:35:44 51°13.665 2°55.955 126.1 -999 192 -999
2010-07-13 05:35:49 51°13.665 2°55.955 126.1 -999 308 -999
2010-07-13 05:35:54 51°13.665 2°55.955 126.1 -999 234 -999
2010-07-13 05:35:59 51°13.665 2°55.955 126 0.1 344 -999
2010-07-13 05:36:04 51°13.665 2°55.954 126 -999 315 -999
2010-07-13 05:36:09 51°13.665 2°55.954 125.9 -999 336 -999
2010-07-13 05:36:14 51°13.665 2°55.954 125.9 -999 287 -999
2010-07-13 05:36:19 51°13.665 2°55.954 125.9 -999 332 -999
2010-07-13 05:36:24 51°13.665 2°55.954 125.9 -999 327 -999
2010-07-13 05:36:29 51°13.665 2°55.954 125.9 0.1 354 -999
2010-07-13 05:36:34 51°13.665 2°55.954 125.9 -999 322 -999
2010-07-13 05:36:39 51°13.665 2°55.954 125.9 -999 212 -999
2010-07-13 05:36:44 51°13.665 2°55.954 125.9 -999 227 -999
2010-07-13 05:36:49 51°13.665 2°55.954 125.9 -999 195 -999
2010-07-13 05:36:54 51°13.665 2°55.954 125.9 0.1 196 -999
2010-07-13 05:36:59 51°13.665 2°55.954 125.9 -999 321 -999
2010-07-13 05:37:04 51°13.665 2°55.954 125.9 -999 327 -999
2010-07-13 05:37:09 51°13.665 2°55.954 125.9 -999 293 -999
2010-07-13 05:37:14 51°13.665 2°55.954 125.9 -999 198 -999
2010-07-13 05:37:19 51°13.665 2°55.954 125.9 -999 323 -999
2010-07-13 05:37:24 51°13.665 2°55.954 125.9 -999 203 -999
2010-07-13 05:37:29 51°13.665 2°55.954 125.9 -999 203 -999
2010-07-13 05:37:34 51°13.664 2°55.954 125.9 -999 185 -999
2010-07-13 05:37:39 51°13.665 2°55.954 125.9 -999 345 -999
2010-07-13 05:37:44 51°13.665 2°55.955 125.9 -999 336 -999
2010-07-13 05:37:49 51°13.665 2°55.955 125.9 -999 257 -999
2010-07-13 05:37:54 51°13.664 2°55.955 126 0.1 192 -999
2010-07-13 05:37:59 51°13.664 2°55.955 126 -999 193 -999
2010-07-13 05:38:04 51°13.664 2°55.955 126 -999 321 -999
2010-07-13 05:38:09 51°13.664 2°55.955 126 -999 199 -999
2010-07-13 05:38:14 51°13.664 2°55.955 126 -999 223 -999
2010-07-13 05:38:19 51°13.664 2°55.955 126 -999 303 -999
2010-07-13 05:38:24 51°13.664 2°55.955 126 -999 208 -999
2010-07-13 05:38:29 51°13.664 2°55.955 126 0.1 192 -999
2010-07-13 05:38:34 51°13.665 2°55.956 126.1 -999 267 -999
2010-07-13 05:38:39 51°13.665 2°55.956 126.1 -999 334 -999
2010-07-13 05:38:44 51°13.665 2°55.956 126.1 -999 312 -999
2010-07-13 05:38:49 51°13.665 2°55.955 126.1 0.1 344 -999
2010-07-13 05:38:54 51°13.665 2°55.955 126.1 -999 310 -999
2010-07-13 05:38:59 51°13.665 2°55.955 126.1 -999 188 -999
2010-07-13 05:39:04 51°13.665 2°55.955 126.1 -999 201 -999
2010-07-13 05:39:09 51°13.665 2°55.955 126.1 -999 284 -999
2010-07-13 05:39:14 51°13.665 2°55.955 126.1 -999 279 -999
2010-07-13 05:39:19 51°13.665 2°55.955 126.1 -999 236 -999
2010-07-13 05:39:24 51°13.665 2°55.955 126.1 0.1 182 -999
2010-07-13 05:39:29 51°13.665 2°55.955 126.1 -999 292 -999
2010-07-13 05:39:34 51°13.665 2°55.955 126.1 -999 250 -999
2010-07-13 05:39:39 51°13.665 2°55.955 126.1 -999 235 -999
2010-07-13 05:39:44 51°13.666 2°55.955 126.1 -999 328 -999
2010-07-13 05:39:49 51°13.666 2°55.955 126.1 -999 337 -999
2010-07-13 05:39:54 51°13.666 2°55.955 126 -999 226 -999
2010-07-13 05:39:59 51°13.666 2°55.955 126 -999 270 -999
2010-07-13 05:40:04 51°13.666 2°55.955 126 0.1 189 -999
2010-07-13 05:40:09 51°13.666 2°55.955 126 -999 309 -999
2010-07-13 05:40:14 51°13.666 2°55.955 126 -999 210 -999
2010-07-13 05:40:19 51°13.666 2°55.955 126 -999 209 -999
2010-07-13 05:40:24 51°13.666 2°55.955 126 0.1 346 -999
2010-07-13 05:40:29 51°13.666 2°55.955 126 0.1 354 -999
2010-07-13 05:40:34 51°13.666 2°55.955 126 0.1 347 -999
2010-07-13 05:40:39 51°13.666 2°55.955 126 -999 349 -999
2010-07-13 05:40:44 51°13.666 2°55.955 126 -999 330 -999
2010-07-13 05:40:49 51°13.666 2°55.955 126 0.1 344 -999
2010-07-13 05:40:54 51°13.666 2°55.955 126 -999 312 -999
2010-07-13 05:40:59 51°13.666 2°55.955 126 0.1 338 -999
2010-07-13 05:41:04 51°13.666 2°55.956 126 -999 329 -999
2010-07-13 05:41:09 51°13.666 2°55.955 126 -999 253 -999
2010-07-13 05:41:14 51°13.666 2°55.955 126 -999 235 -999
2010-07-13 05:41:19 51°13.666 2°55.955 126.1 -999 325 -999
2010-07-13 05:41:24 51°13.666 2°55.956 126.1 -999 313 -999
2010-07-13 05:41:29 51°13.666 2°55.956 126.1 -999 200 -999
2010-07-13 05:41:34 51°13.666 2°55.956 126 -999 248 -999
2010-07-13 05:41:39 51°13.666 2°55.956 125.9 -999 315 -999
2010-07-13 05:41:44 51°13.667 2°55.956 125.9 -999 235 -999
2010-07-13 05:41:49 51°13.667 2°55.956 125.9 -999 325 -999
2010-07-13 05:41:54 51°13.667 2°55.956 125.9 -999 223 -999
2010-07-13 05:41:59 51°13.667 2°55.955 125.9 -999 275 -999
2010-07-13 05:42:04 51°13.667 2°55.955 125.9 0.1 326 -999
2010-07-13 05:42:09 51°13.667 2°55.955 125.9 -999 320 -999
2010-07-13 05:42:14 51°13.667 2°55.955 125.9 -999 322 -999
2010-07-13 05:42:19 51°13.667 2°55.955 125.9 -999 341 -999
2010-07-13 05:42:24 51°13.667 2°55.955 125.9 -999 325 -999
2010-07-13 05:42:29 51°13.667 2°55.955 125.9 -999 296 -999
2010-07-13 05:42:34 51°13.667 2°55.955 125.9 0.1 345 -999
2010-07-13 05:42:39 51°13.666 2°55.955 125.9 -999 336 -999
2010-07-13 05:42:44 51°13.666 2°55.955 125.9 -999 274 -999
2010-07-13 05:42:49 51°13.666 2°55.955 125.9 0.1 326 -999
2010-07-13 05:42:54 51°13.666 2°55.955 125.9 -999 309 -999
2010-07-13 05:42:59 51°13.666 2°55.955 125.9 0.1 195 -999
2010-07-13 05:43:04 51°13.666 2°55.955 125.8 -999 215 -999
2010-07-13 05:43:09 51°13.666 2°55.955 125.7 0.1 337 -999
2010-07-13 05:43:14 51°13.666 2°55.955 125.7 -999 306 -999
2010-07-13 05:43:19 51°13.666 2°55.955 125.6 -999 318 -999
2010-07-13 05:43:24 51°13.666 2°55.955 125.6 0.1 186 -999
2010-07-13 05:43:29 51°13.666 2°55.955 125.6 0.1 184 -999
2010-07-13 05:43:34 51°13.666 2°55.955 125.6 -999 274 -999
2010-07-13 05:43:39 51°13.666 2°55.955 125.6 -999 202 -999
2010-07-13 05:43:44 51°13.666 2°55.955 125.6 -999 198 -999
2010-07-13 05:43:49 51°13.666 2°55.955 125.7 0.1 351 -999
2010-07-13 05:43:54 51°13.665 2°55.955 125.7 -999 326 -999
2010-07-13 05:43:59 51°13.665 2°55.955 125.7 -999 321 -999
2010-07-13 05:44:04 51°13.665 2°55.955 125.7 -999 341 -999
2010-07-13 05:44:09 51°13.665 2°55.955 125.7 -999 329 -999
2010-07-13 05:44:14 51°13.665 2°55.955 125.7 0.1 336 -999
2010-07-13 05:44:19 51°13.665 2°55.955 125.7 -999 258 -999
2010-07-13 05:44:24 51°13.665 2°55.955 125.7 -999 201 -999
2010-07-13 05:44:29 51°13.665 2°55.955 125.7 -999 194 -999
2010-07-13 05:44:34 51°13.665 2°55.955 125.7 -999 217 -999
2010-07-13 05:44:39 51°13.665 2°55.955 125.7 -999 217 -999
2010-07-13 05:44:44 51°13.665 2°55.955 125.6 -999 293 -999
2010-07-13 05:44:49 51°13.665 2°55.955 125.6 -999 217 -999
2010-07-13 05:44:54 51°13.665 2°55.955 125.6 -999 311 -999
2010-07-13 05:44:59 51°13.665 2°55.955 125.5 -999 337 -999
2010-07-13 05:45:04 51°13.665 2°55.955 125.5 -999 210 -999
2010-07-13 05:45:09 51°13.665 2°55.955 125.5 -999 197 -999
2010-07-13 05:45:14 51°13.665 2°55.955 125.5 -999 233 -999
2010-07-13 05:45:19 51°13.665 2°55.955 125.5 -999 348 -999
2010-07-13 05:45:24 51°13.665 2°55.955 125.6 -999 321 -999
2010-07-13 05:45:29 51°13.665 2°55.955 125.7 0.1 344 -999
2010-07-13 05:45:34 51°13.665 2°55.955 125.7 0.1 330 -999
2010-07-13 05:45:39 51°13.665 2°55.955 125.7 -999 327 -999
2010-07-13 05:45:44 51°13.665 2°55.955 125.7 -999 309 -999
2010-07-13 05:45:49 51°13.665 2°55.955 125.7 -999 347 -999
2010-07-13 05:45:54 51°13.665 2°55.955 125.7 -999 327 -999
2010-07-13 05:45:59 51°13.665 2°55.955 125.7 0.1 343 -999
2010-07-13 05:46:04 51°13.665 2°55.955 125.7 -999 321 -999
2010-07-13 05:46:09 51°13.665 2°55.955 125.7 -999 195 -999
2010-07-13 05:46:14 51°13.665 2°55.955 125.7 -999 338 -999
2010-07-13 05:46:19 51°13.665 2°55.955 125.7 -999 235 -999
2010-07-13 05:46:24 51°13.665 2°55.955 125.7 -999 337 -999
2010-07-13 05:46:29 51°13.665 2°55.955 125.8 -999 211 -999
2010-07-13 05:46:34 51°13.665 2°55.955 125.9 -999 329 -999
2010-07-13 05:46:39 51°13.665 2°55.955 125.9 -999 203 -999
2010-07-13 05:46:44 51°13.665 2°55.955 125.9 -999 187 -999
2010-07-13 05:46:49 51°13.665 2°55.955 126 0.1 349 -999
2010-07-13 05:46:54 51°13.666 2°55.955 126 -999 327 -999
2010-07-13 05:46:59 51°13.666 2°55.954 126 -999 331 -999
2010-07-13 05:47:04 51°13.666 2°55.954 126 -999 319 -999
2010-07-13 05:47:09 51°13.665 2°55.954 126 -999 324 -999
2010-07-13 05:47:14 51°13.666 2°55.954 126 -999 239 -999
2010-07-13 05:47:19 51°13.665 2°55.954 126 -999 234 -999
2010-07-13 05:47:24 51°13.665 2°55.954 126 -999 293 -999
2010-07-13 05:47:29 51°13.665 2°55.954 126 -999 321 -999
2010-07-13 05:47:34 51°13.665 2°55.954 126 -999 202 -999
2010-07-13 05:47:39 51°13.665 2°55.955 126 -999 197 -999
2010-07-13 05:47:44 51°13.665 2°55.955 126 -999 300 -999
2010-07-13 05:47:49 51°13.665 2°55.955 126 -999 328 -999
2010-07-13 05:47:54 51°13.665 2°55.955 126 -999 338 -999
2010-07-13 05:47:59 51°13.665 2°55.955 125.9 0.1 340 -999
2010-07-13 05:48:04 51°13.665 2°55.955 125.9 0.1 342 -999
2010-07-13 05:48:09 51°13.665 2°55.955 125.9 -999 331 -999
2010-07-13 05:48:14 51°13.665 2°55.955 125.9 -999 202 -999
2010-07-13 05:48:19 51°13.665 2°55.955 125.9 0.1 352 -999
2010-07-13 05:48:24 51°13.665 2°55.955 125.9 -999 332 -999
2010-07-13 05:48:29 51°13.665 2°55.955 125.9 -999 338 -999
2010-07-13 05:48:34 51°13.665 2°55.955 126 -999 291 -999
2010-07-13 05:48:39 51°13.665 2°55.955 126.1 0.1 344 -999
2010-07-13 05:48:44 51°13.665 2°55.955 126.1 -999 331 -999
2010-07-13 05:48:49 51°13.665 2°55.955 126.1 0.1 333 -999
2010-07-13 05:48:54 51°13.665 2°55.955 126.1 -999 278 -999
2010-07-13 05:48:59 51°13.665 2°55.955 126.1 -999 264 -999
2010-07-13 05:49:04 51°13.665 2°55.955 126.1 -999 266 -999
2010-07-13 05:49:09 51°13.665 2°55.955 126.1 -999 192 -999
2010-07-13 05:49:14 51°13.665 2°55.955 126.1 -999 223 -999
2010-07-13 05:49:19 51°13.665 2°55.954 126.1 -999 253 -999
2010-07-13 05:49:24 51°13.665 2°55.954 126.1 -999 330 -999
2010-07-13 05:49:29 51°13.665 2°55.955 126.1 -999 235 -999
2010-07-13 05:49:34 51°13.665 2°55.955 126.1 -999 325 -999
2010-07-13 05:49:39 51°13.665 2°55.955 126.1 0.1 347 -999
2010-07-13 05:49:44 51°13.665 2°55.955 126.1 -999 333 -999
2010-07-13 05:49:49 51°13.665 2°55.955 126.1 -999 230 -999
2010-07-13 05:49:54 51°13.665 2°55.955 126.1 0.1 197 -999
2010-07-13 05:49:59 51°13.665 2°55.955 126.1 0.1 195 -999
2010-07-13 05:50:04 51°13.665 2°55.955 126.1 -999 317 -999
2010-07-13 05:50:09 51°13.665 2°55.955 126.1 -999 340 -999
2010-07-13 05:50:14 51°13.665 2°55.955 126.1 -999 233 -999
2010-07-13 05:50:19 51°13.665 2°55.955 126.1 -999 334 -999
2010-07-13 05:50:24 51°13.665 2°55.955 126.1 -999 328 -999
2010-07-13 05:50:29 51°13.665 2°55.955 126.2 -999 300 -999
2010-07-13 05:50:34 51°13.665 2°55.955 126.3 -999 297 -999
2010-07-13 05:50:39 51°13.665 2°55.955 126.3 0.1 186 -999
2010-07-13 05:50:44 51°13.665 2°55.955 126.4 0.1 177 -999
2010-07-13 05:50:49 51°13.665 2°55.955 126.4 -999 213 -999
2010-07-13 05:50:54 51°13.665 2°55.955 126.4 -999 241 -999
2010-07-13 05:50:59 51°13.665 2°55.955 126.4 -999 284 -999
2010-07-13 05:51:04 51°13.664 2°55.955 126.3 0.1 336 -999
2010-07-13 05:51:09 51°13.664 2°55.955 126.2 0.1 316 -999
2010-07-13 05:51:14 51°13.664 2°55.955 126.1 -999 320 -999
2010-07-13 05:51:19 51°13.664 2°55.955 125.9 -999 277 -999
2010-07-13 05:51:24 51°13.664 2°55.955 125.8 -999 304 -999
2010-07-13 05:51:29 51°13.664 2°55.955 125.7 -999 269 -999
2010-07-13 05:51:34 51°13.664 2°55.955 125.6 -999 201 -999
2010-07-13 05:51:39 51°13.664 2°55.955 125.5 -999 281 -999
2010-07-13 05:51:44 51°13.664 2°55.955 125.5 -999 338 -999
2010-07-13 05:51:49 51°13.664 2°55.955 125.5 -999 201 -999
2010-07-13 05:51:54 51°13.664 2°55.955 125.5 0.1 198 -999
2010-07-13 05:51:59 51°13.664 2°55.955 125.5 -999 263 -999
2010-07-13 05:52:04 51°13.665 2°55.954 125.6 -999 309 -999
2010-07-13 05:52:09 51°13.662 2°55.957 125.7 -999 340 -999
2010-07-13 05:52:14 51°13.661 2°55.959 125.7 -999 340 -999
2010-07-13 05:52:19 51°13.662 2°55.958 125.8 -999 228 -999
2010-07-13 05:52:24 51°13.662 2°55.957 125.8 -999 195 -999
2010-07-13 05:52:29 51°13.663 2°55.956 125.8 -999 265 -999
2010-07-13 05:52:34 51°13.663 2°55.956 125.8 -999 244 -999
2010-07-13 05:52:39 51°13.664 2°55.955 125.8 -999 326 -999
2010-07-13 05:52:44 51°13.664 2°55.955 125.8 -999 322 -999
2010-07-13 05:52:49 51°13.664 2°55.955 125.7 -999 300 -999
2010-07-13 05:52:54 51°13.664 2°55.955 125.7 -999 326 -999
2010-07-13 05:52:59 51°13.665 2°55.954 125.7 -999 329 -999
2010-07-13 05:53:04 51°13.665 2°55.954 125.7 -999 314 -999
2010-07-13 05:53:09 51°13.665 2°55.953 125.7 -999 248 -999
2010-07-13 05:53:14 51°13.665 2°55.953 125.8 -999 211 -999
2010-07-13 05:53:19 51°13.665 2°55.953 125.8 -999 318 -999
2010-07-13 05:53:24 51°13.665 2°55.954 125.8 -999 346 -999
2010-07-13 05:53:29 51°13.665 2°55.953 125.9 0.1 330 -999
2010-07-13 05:53:34 51°13.665 2°55.953 126.1 0.1 329 -999
2010-07-13 05:53:39 51°13.665 2°55.954 126.2 0.1 334 -999
2010-07-13 05:53:44 51°13.665 2°55.954 126.3 -999 329 -999
2010-07-13 05:53:49 51°13.665 2°55.954 126.3 -999 185 -999
2010-07-13 05:53:54 51°13.665 2°55.954 126.4 -999 335 -999
2010-07-13 05:53:59 51°13.665 2°55.954 126.4 0.1 336 -999
2010-07-13 05:54:04 51°13.665 2°55.954 126.4 0.1 348 -999
2010-07-13 05:54:09 51°13.665 2°55.954 126.4 -999 269 -999
2010-07-13 05:54:14 51°13.665 2°55.954 126.4 -999 220 -999
2010-07-13 05:54:19 51°13.665 2°55.954 126.4 0.1 349 -999
2010-07-13 05:54:24 51°13.665 2°55.954 126.3 0.1 336 -999
2010-07-13 05:54:29 51°13.665 2°55.954 126.2 -999 277 -999
2010-07-13 05:54:34 51°13.665 2°55.954 126 -999 296 -999
2010-07-13 05:54:39 51°13.665 2°55.954 126 0.1 319 -999
2010-07-13 05:54:44 51°13.665 2°55.954 125.9 -999 205 -999
2010-07-13 05:54:49 51°13.665 2°55.955 125.9 -999 195 -999
2010-07-13 05:54:54 51°13.665 2°55.955 125.9 -999 337 -999
2010-07-13 05:54:59 51°13.664 2°55.955 125.9 -999 339 -999
2010-07-13 05:55:04 51°13.664 2°55.956 125.9 -999 325 -999
2010-07-13 05:55:09 51°13.664 2°55.956 125.9 -999 311 -999
2010-07-13 05:55:14 51°13.664 2°55.956 126 -999 284 -999
2010-07-13 05:55:19 51°13.667 2°55.952 126 -999 346 -999
2010-07-13 05:55:26 51°13.671 2°55.946 126 0.1 221 -999
2010-07-13 05:55:31 51°13.665 2°55.954 126 0.1 185 -999
2010-07-13 05:55:36 51°13.663 2°55.957 125.9 -999 253 -999
2010-07-13 05:55:41 51°13.663 2°55.958 125.8 0.1 342 -999
2010-07-13 05:55:46 51°13.663 2°55.957 125.8 -999 325 -999
2010-07-13 05:55:51 51°13.664 2°55.956 125.8 -999 325 -999
2010-07-13 05:55:56 51°13.664 2°55.956 125.7 -999 313 -999
2010-07-13 05:56:01 51°13.665 2°55.955 125.7 0.1 333 -999
2010-07-13 05:56:06 51°13.665 2°55.954 125.7 0.1 335 -999
2010-07-13 05:56:11 51°13.665 2°55.954 125.7 0.1 334 -999
2010-07-13 05:56:16 51°13.665 2°55.953 125.7 -999 295 -999
2010-07-13 05:56:21 51°13.665 2°55.953 125.7 -999 265 -999
2010-07-13 05:56:26 51°13.665 2°55.954 125.7 -999 317 -999
2010-07-13 05:56:31 51°13.665 2°55.954 125.7 -999 319 -999
2010-07-13 05:56:36 51°13.664 2°55.955 125.7 -999 324 -999
2010-07-13 05:56:41 51°13.663 2°55.956 125.7 0.1 293 -999
2010-07-13 05:56:46 51°13.665 2°55.954 125.7 -999 277 -999
2010-07-13 05:56:51 51°13.669 2°55.949 125.7 -999 261 -999
2010-07-13 05:56:56 51°13.671 2°55.945 125.7 -999 357 -999
2010-07-13 05:57:01 51°13.67 2°55.947 125.7 0.1 338 -999
2010-07-13 05:57:06 51°13.669 2°55.948 125.7 0.1 334 -999
2010-07-13 05:57:11 51°13.669 2°55.949 125.7 -999 318 -999
2010-07-13 05:57:16 51°13.669 2°55.949 125.7 -999 249 -999
2010-07-13 05:57:21 51°13.669 2°55.949 125.7 -999 204 -999
2010-07-13 05:57:26 51°13.669 2°55.949 125.7 0.1 341 -999
2010-07-13 05:57:31 51°13.669 2°55.949 125.7 0.1 330 -999
2010-07-13 05:57:36 51°13.669 2°55.948 125.7 -999 292 -999
2010-07-13 05:57:41 51°13.669 2°55.949 125.7 0.1 337 -999
2010-07-13 05:57:46 51°13.669 2°55.949 125.7 -999 313 -999
2010-07-13 05:57:51 51°13.669 2°55.949 125.7 -999 221 -999
2010-07-13 05:57:56 51°13.668 2°55.95 125.7 0.1 200 -999
2010-07-13 05:58:01 51°13.669 2°55.95 125.7 0.1 336 -999
2010-07-13 05:58:06 51°13.668 2°55.95 125.7 -999 265 -999
2010-07-13 05:58:11 51°13.668 2°55.95 125.7 0.1 327 -999
2010-07-13 05:58:16 51°13.668 2°55.951 125.6 -999 251 -999
2010-07-13 05:58:21 51°13.668 2°55.951 125.6 -999 188 -999
2010-07-13 05:58:26 51°13.668 2°55.951 125.5 -999 160 -999
2010-07-13 05:58:31 51°13.667 2°55.952 125.4 -999 10 -999
2010-07-13 05:58:36 51°13.667 2°55.952 125.4 -999 241 -999
2010-07-13 05:58:41 51°13.667 2°55.952 125.3 -999 188 -999
2010-07-13 05:58:46 51°13.669 2°55.95 125.3 -999 307 -999
2010-07-13 05:58:51 51°13.672 2°55.946 125.3 0.1 316 -999
2010-07-13 05:58:56 51°13.673 2°55.944 125.3 0.1 313 -999
2010-07-13 05:59:01 51°13.674 2°55.943 125.3 -999 211 -999
2010-07-13 05:59:06 51°13.675 2°55.943 125.2 -999 275 -999
2010-07-13 05:59:11 51°13.675 2°55.942 125.2 0.1 152 -999
2010-07-13 05:59:16 51°13.675 2°55.942 125.2 0.1 143 -999
2010-07-13 05:59:21 51°13.675 2°55.942 125.2 -999 45 -999
2010-07-13 05:59:26 51°13.675 2°55.942 125.3 0.1 143 -999
2010-07-13 05:59:31 51°13.675 2°55.941 125.3 0.1 143 -999
2010-07-13 05:59:36 51°13.675 2°55.941 125.3 -999 124 -999
2010-07-13 05:59:41 51°13.675 2°55.941 125.3 0.1 147 -999
2010-07-13 05:59:46 51°13.675 2°55.941 125.2 0.1 131 -999
2010-07-13 05:59:51 51°13.675 2°55.941 125.2 0.1 310 -999
2010-07-13 05:59:56 51°13.676 2°55.94 125.2 0.1 319 -999
2010-07-13 06:00:01 51°13.676 2°55.94 125.2 0.2 318 -999
2010-07-13 06:00:06 51°13.676 2°55.94 125.2 0.3 316 -999
2010-07-13 06:00:11 51°13.676 2°55.94 125.2 0.1 314 -999
2010-07-13 06:00:16 51°13.676 2°55.939 125.2 0.1 315 -999
2010-07-13 06:00:21 51°13.677 2°55.939 125.2 0.1 317 -999
2010-07-13 06:00:26 51°13.677 2°55.938 125.2 0.1 307 -999
2010-07-13 06:00:31 51°13.677 2°55.939 125.2 -999 346 -999
2010-07-13 06:00:36 51°13.677 2°55.939 125.2 0.1 317 -999
2010-07-13 06:00:41 51°13.677 2°55.939 125.2 -999 292 -999
2010-07-13 06:00:46 51°13.676 2°55.94 125.2 0.1 157 -999
2010-07-13 06:00:51 51°13.676 2°55.94 125.2 -999 152 -999
2010-07-13 06:00:56 51°13.676 2°55.94 125.2 -999 156 -999
2010-07-13 06:01:01 51°13.676 2°55.939 125.3 -999 308 -999
2010-07-13 06:01:06 51°13.676 2°55.94 125.3 -999 153 -999
2010-07-13 06:01:11 51°13.676 2°55.939 125.3 -999 287 -999
2010-07-13 06:01:16 51°13.677 2°55.939 125.3 -999 322 -999
2010-07-13 06:01:21 51°13.677 2°55.939 125.3 0.1 167 -999
2010-07-13 06:01:26 51°13.677 2°55.938 125.3 -999 328 -999
2010-07-13 06:01:31 51°13.677 2°55.938 125.3 0.1 312 -999
2010-07-13 06:01:36 51°13.677 2°55.938 125.4 -999 321 -999
2010-07-13 06:01:41 51°13.677 2°55.938 125.4 -999 190 -999
2010-07-13 06:01:46 51°13.677 2°55.938 125.4 -999 266 -999
2010-07-13 06:01:51 51°13.677 2°55.939 125.3 -999 316 -999
2010-07-13 06:01:56 51°13.677 2°55.939 125.3 -999 307 -999
2010-07-13 06:02:01 51°13.677 2°55.939 125.3 -999 196 -999
2010-07-13 06:02:06 51°13.677 2°55.939 125.5 0.1 148 -999
2010-07-13 06:02:11 51°13.677 2°55.938 125.5 0.1 326 -999
2010-07-13 06:02:16 51°13.677 2°55.938 125.5 0.1 312 -999
2010-07-13 06:02:21 51°13.677 2°55.939 125.3 -999 339 -999
2010-07-13 06:02:26 51°13.677 2°55.939 125.1 0.1 146 -999
2010-07-13 06:02:31 51°13.677 2°55.94 125 0.1 326 -999
2010-07-13 06:02:36 51°13.676 2°55.94 125 0.2 314 -999
2010-07-13 06:02:41 51°13.676 2°55.941 125 0.1 314 -999
2010-07-13 06:02:46 51°13.675 2°55.942 125 0.2 152 -999
2010-07-13 06:02:51 51°13.675 2°55.942 125 0.1 134 -999
2010-07-13 06:02:56 51°13.675 2°55.942 125 0.1 312 -999
2010-07-13 06:03:01 51°13.675 2°55.943 125 0.1 310 -999
2010-07-13 06:03:06 51°13.674 2°55.943 125 -999 160 -999
2010-07-13 06:03:11 51°13.674 2°55.943 125.1 -999 143 -999
2010-07-13 06:03:16 51°13.674 2°55.943 125.1 -999 304 -999
2010-07-13 06:03:21 51°13.675 2°55.943 125.1 -999 325 -999
2010-07-13 06:03:26 51°13.675 2°55.943 125.1 -999 151 -999
2010-07-13 06:03:31 51°13.675 2°55.943 125.1 -999 307 -999
2010-07-13 06:03:36 51°13.674 2°55.943 125.1 0.1 155 -999
2010-07-13 06:03:41 51°13.675 2°55.943 125.1 0.1 321 -999
2010-07-13 06:03:46 51°13.674 2°55.943 125.2 0.1 316 -999
2010-07-13 06:03:51 51°13.674 2°55.943 125.3 0.2 313 -999
2010-07-13 06:03:56 51°13.675 2°55.943 125.4 0.2 321 -999
2010-07-13 06:04:01 51°13.674 2°55.943 125.5 0.2 314 -999
2010-07-13 06:04:06 51°13.674 2°55.944 125.5 0.1 148 -999
2010-07-13 06:04:11 51°13.673 2°55.944 125.5 0.2 146 -999
2010-07-13 06:04:16 51°13.673 2°55.945 125.5 0.3 141 -999
2010-07-13 06:04:21 51°13.673 2°55.945 125.5 0.1 139 -999
2010-07-13 06:04:26 51°13.673 2°55.945 125.5 0.1 142 -999
2010-07-13 06:04:31 51°13.673 2°55.944 125.5 -999 233 -999
2010-07-13 06:04:36 51°13.673 2°55.944 125.5 0.1 321 -999
2010-07-13 06:04:41 51°13.673 2°55.944 125.5 -999 281 5.4
2010-07-13 06:04:46 51°13.674 2°55.944 125.5 0.1 320 -999
2010-07-13 06:04:51 51°13.674 2°55.944 125.5 0.1 309 -999
2010-07-13 06:04:56 51°13.674 2°55.943 125.5 0.1 311 -999
2010-07-13 06:05:01 51°13.674 2°55.943 125.5 0.1 146 -999
2010-07-13 06:05:06 51°13.674 2°55.943 125.5 0.1 136 -999
2010-07-13 06:05:11 51°13.674 2°55.943 125.4 0.1 320 -999
2010-07-13 06:05:16 51°13.674 2°55.942 125.4 0.1 316 -999
2010-07-13 06:05:21 51°13.674 2°55.943 125.2 0.1 169 -999
2010-07-13 06:05:26 51°13.674 2°55.943 125.2 0.1 141 -999
2010-07-13 06:05:31 51°13.674 2°55.943 125.1 0.2 148 -999
2010-07-13 06:05:36 51°13.674 2°55.943 125.1 -999 352 -999
2010-07-13 06:05:41 51°13.674 2°55.943 125.1 0.1 180 -999
2010-07-13 06:05:46 51°13.674 2°55.944 125.1 0.2 140 -999
2010-07-13 06:05:51 51°13.673 2°55.944 125.1 0.1 152 -999
2010-07-13 06:05:56 51°13.673 2°55.944 125.2 -999 74 -999
2010-07-13 06:06:01 51°13.673 2°55.944 125.2 0.1 166 -999
2010-07-13 06:06:06 51°13.673 2°55.945 125.3 0.2 145 -999
2010-07-13 06:06:11 51°13.673 2°55.945 125.4 0.2 141 -999
2010-07-13 06:06:16 51°13.672 2°55.945 125.4 0.2 143 -999
2010-07-13 06:06:21 51°13.672 2°55.946 125.4 0.2 145 -999
2010-07-13 06:06:26 51°13.672 2°55.946 125.4 0.3 139 -999
2010-07-13 06:06:31 51°13.672 2°55.946 125.5 0.3 142 -999
2010-07-13 06:06:36 51°13.672 2°55.946 125.5 0.3 139 -999
2010-07-13 06:06:41 51°13.672 2°55.946 125.5 0.2 144 -999
2010-07-13 06:06:46 51°13.672 2°55.947 125.5 0.2 141 -999
2010-07-13 06:06:51 51°13.672 2°55.947 125.5 0.1 142 -999
2010-07-13 06:06:56 51°13.672 2°55.947 125.5 -999 49 -999
2010-07-13 06:07:01 51°13.672 2°55.947 125.5 0.1 321 -999
2010-07-13 06:07:06 51°13.672 2°55.946 125.4 0.1 310 -999
2010-07-13 06:07:11 51°13.673 2°55.946 125.3 0.1 322 -999
2010-07-13 06:07:16 51°13.673 2°55.945 125.3 -999 170 -999
2010-07-13 06:07:21 51°13.673 2°55.945 125.3 -999 268 -999
2010-07-13 06:07:26 51°13.674 2°55.945 125.6 -999 261 -999
2010-07-13 06:07:31 51°13.673 2°55.945 125.8 -999 196 -999
2010-07-13 06:07:36 51°13.673 2°55.945 126.2 0.1 142 -999